createdAt,value
2019-02-27T00:01:23.680Z,7.47
2019-02-27T00:04:27.380Z,6.78
2019-02-27T00:07:30.326Z,6.65
2019-02-27T00:10:33.740Z,6.70
2019-02-27T00:13:37.029Z,7.36
2019-02-27T00:16:44.275Z,7.48
2019-02-27T00:19:45.551Z,7.62
2019-02-27T00:22:50.812Z,7.68
2019-02-27T00:25:53.343Z,7.76
2019-02-27T00:28:56.759Z,7.55
2019-02-27T00:31:59.823Z,7.57
2019-02-27T00:35:06.443Z,7.48
2019-02-27T00:38:07.714Z,7.30
2019-02-27T00:41:12.806Z,7.31
2019-02-27T00:44:16.283Z,7.46
2019-02-27T00:47:20.035Z,7.33
2019-02-27T00:50:24.292Z,7.35
2019-02-27T00:53:28.514Z,7.34
2019-02-27T00:56:31.763Z,7.13
2019-02-27T00:59:35.302Z,7.16
2019-02-27T01:02:38.550Z,7.28
2019-02-27T01:05:43.328Z,7.52
2019-02-27T01:08:46.876Z,7.22
2019-02-27T01:11:51.827Z,7.35
2019-02-27T01:14:55.039Z,7.47
2019-02-27T01:17:58.322Z,7.30
2019-02-27T01:21:01.248Z,7.30
2019-02-27T01:24:04.198Z,7.48
2019-02-27T01:27:07.407Z,7.42
2019-02-27T01:30:11.800Z,7.31
2019-02-27T01:33:14.729Z,7.23
2019-02-27T01:36:17.920Z,7.24
2019-02-27T01:39:20.887Z,7.00
2019-02-27T01:42:24.084Z,7.11
2019-02-27T01:45:27.044Z,7.39
2019-02-27T01:48:30.287Z,7.25
2019-02-27T01:51:33.549Z,7.42
2019-02-27T01:54:36.759Z,7.37
2019-02-27T01:57:39.742Z,7.36
2019-02-27T02:00:42.892Z,7.41
2019-02-27T02:03:47.563Z,7.45
2019-02-27T02:06:51.126Z,6.96
2019-02-27T02:09:55.253Z,7.17
2019-02-27T02:13:16.296Z,7.31
2019-02-27T02:17:13.586Z,7.04
2019-02-27T02:21:09.748Z,7.16
2019-02-27T02:25:28.101Z,7.13
2019-02-27T02:29:42.757Z,7.31
2019-02-27T02:33:08.615Z,7.30
2019-02-27T02:36:41.651Z,7.18
2019-02-27T02:40:52.772Z,6.87
2019-02-27T02:44:44.382Z,6.98
2019-02-27T02:48:42.408Z,6.75
2019-02-27T02:52:40.875Z,6.69
2019-02-27T02:56:43.562Z,6.51
2019-02-27T03:00:48.794Z,6.42
2019-02-27T03:04:48.419Z,6.16
2019-02-27T03:08:46.523Z,6.28
2019-02-27T03:12:34.144Z,6.86
2019-02-27T03:16:26.465Z,6.62
2019-02-27T03:20:17.672Z,6.66
2019-02-27T03:24:18.063Z,6.59
2019-02-27T03:28:04.984Z,6.41
2019-02-27T03:32:01.009Z,6.67
2019-02-27T03:35:53.674Z,6.70
2019-02-27T03:39:37.283Z,6.92
2019-02-27T03:43:22.022Z,6.82
2019-02-27T03:47:22.099Z,6.22
2019-02-27T03:51:02.539Z,6.21
2019-02-27T03:55:12.328Z,5.72
2019-02-27T03:58:45.459Z,6.29
2019-02-27T04:02:42.056Z,6.29
2019-02-27T04:06:27.247Z,6.47
2019-02-27T04:09:31.325Z,6.41
2019-02-27T04:12:34.532Z,6.47
2019-02-27T04:15:38.118Z,6.35
2019-02-27T04:18:42.192Z,6.21
2019-02-27T04:21:45.136Z,6.21
2019-02-27T04:24:48.879Z,6.09
2019-02-27T04:27:55.267Z,6.10
2019-02-27T04:30:57.928Z,6.14
2019-02-27T04:34:01.269Z,6.20
2019-02-27T04:37:04.569Z,6.08
2019-02-27T04:40:10.835Z,5.94
2019-02-27T04:43:12.482Z,5.97
2019-02-27T04:46:15.955Z,6.19
2019-02-27T04:49:18.914Z,5.97
2019-02-27T04:52:24.262Z,6.16
2019-02-27T04:55:26.704Z,5.70
2019-02-27T04:58:31.273Z,6.10
2019-02-27T05:01:36.687Z,6.25
2019-02-27T05:04:40.078Z,6.13
2019-02-27T05:07:43.865Z,5.96
2019-02-27T05:10:46.799Z,5.92
2019-02-27T05:13:54.051Z,6.16
2019-02-27T05:16:54.875Z,6.18
2019-02-27T05:19:57.824Z,5.96
2019-02-27T05:23:01.094Z,6.17
2019-02-27T05:26:05.329Z,6.05
2019-02-27T05:29:08.526Z,5.98
2019-02-27T05:32:11.774Z,5.88
2019-02-27T05:35:15.025Z,6.11
2019-02-27T05:38:18.228Z,5.96
2019-02-27T05:41:21.488Z,5.89
2019-02-27T05:44:25.531Z,5.86
2019-02-27T05:47:28.702Z,5.79
2019-02-27T05:50:34.218Z,5.88
2019-02-27T05:53:37.001Z,5.76
2019-02-27T05:56:40.246Z,5.78
2019-02-27T05:59:43.604Z,5.62
2019-02-27T06:02:46.782Z,5.86
2019-02-27T06:05:49.950Z,5.42
2019-02-27T06:08:52.867Z,5.69
2019-02-27T06:11:55.820Z,5.79
2019-02-27T06:14:59.075Z,5.48
2019-02-27T06:18:01.996Z,5.61
2019-02-27T06:21:04.943Z,5.77
2019-02-27T06:24:11.695Z,5.58
2019-02-27T06:27:13.987Z,5.63
2019-02-27T06:30:17.763Z,5.76
2019-02-27T06:33:21.282Z,5.54
2019-02-27T06:36:25.108Z,5.59
2019-02-27T06:39:28.036Z,5.65
2019-02-27T06:42:31.031Z,5.62
2019-02-27T06:45:34.130Z,5.78
2019-02-27T06:48:37.372Z,5.65
2019-02-27T06:51:40.305Z,5.69
2019-02-27T06:54:43.554Z,5.85
2019-02-27T06:57:48.136Z,5.89
2019-02-27T07:00:51.414Z,5.68
2019-02-27T07:03:54.643Z,5.80
2019-02-27T07:06:57.560Z,5.54
2019-02-27T07:10:00.857Z,5.52
2019-02-27T07:13:04.029Z,5.75
2019-02-27T07:16:06.982Z,5.79
2019-02-27T07:19:10.345Z,5.64
2019-02-27T07:22:13.912Z,5.52
2019-02-27T07:25:16.891Z,5.61
2019-02-27T07:28:20.090Z,5.31
2019-02-27T07:31:23.550Z,5.39
2019-02-27T07:34:27.138Z,5.61
2019-02-27T07:37:30.075Z,5.55
2019-02-27T07:40:33.020Z,5.61
2019-02-27T07:43:36.249Z,5.63
2019-02-27T07:46:39.476Z,5.69
2019-02-27T07:49:42.743Z,5.71
2019-02-27T07:52:45.920Z,5.58
2019-02-27T07:55:50.183Z,5.58
2019-02-27T07:58:53.223Z,5.78
2019-02-27T08:01:56.455Z,5.91
2019-02-27T08:04:59.698Z,5.95
2019-02-27T08:08:03.872Z,6.05
2019-02-27T08:11:07.189Z,6.15
2019-02-27T08:14:10.116Z,5.99
2019-02-27T08:17:17.650Z,6.23
2019-02-27T08:20:21.057Z,6.35
2019-02-27T08:23:23.782Z,8.31
2019-02-27T08:26:26.854Z,7.14
2019-02-27T08:29:29.800Z,6.96
2019-02-27T08:32:34.621Z,6.76
2019-02-27T08:35:38.254Z,6.69
2019-02-27T08:38:41.202Z,6.74
2019-02-27T08:41:44.684Z,6.87
2019-02-27T08:44:47.926Z,7.01
2019-02-27T08:47:50.874Z,7.09
2019-02-27T08:50:53.816Z,6.87
2019-02-27T08:53:59.298Z,7.17
2019-02-27T08:57:02.543Z,7.45
2019-02-27T09:00:14.202Z,7.68
2019-02-27T09:03:20.409Z,8.00
2019-02-27T09:06:27.248Z,8.27
2019-02-27T09:09:28.641Z,8.41
2019-02-27T09:12:32.153Z,8.59
2019-02-27T09:15:35.115Z,8.59
2019-02-27T09:18:38.050Z,8.84
2019-02-27T09:21:41.676Z,8.97
2019-02-27T09:24:44.914Z,9.08
2019-02-27T09:27:48.109Z,9.14
2019-02-27T09:30:51.070Z,9.37
2019-02-27T09:33:54.320Z,9.47
2019-02-27T09:36:57.660Z,9.70
2019-02-27T09:40:04.775Z,9.81
2019-02-27T09:43:07.159Z,10.08
2019-02-27T09:46:10.219Z,10.25
2019-02-27T09:49:13.440Z,10.48
2019-02-27T09:52:16.390Z,11.13
2019-02-27T09:55:20.331Z,10.86
2019-02-27T09:58:24.514Z,11.60
2019-02-27T10:01:29.188Z,11.62
2019-02-27T10:04:32.839Z,11.56
2019-02-27T10:07:36.071Z,11.65
2019-02-27T10:10:39.550Z,12.17
2019-02-27T10:13:43.136Z,12.74
2019-02-27T10:16:46.114Z,12.93
2019-02-27T10:19:49.057Z,13.14
2019-02-27T10:22:53.228Z,12.87
2019-02-27T10:25:57.189Z,13.32
2019-02-27T10:29:00.422Z,13.41
2019-02-27T10:32:03.659Z,13.77
2019-02-27T10:35:07.022Z,13.30
2019-02-27T10:38:10.006Z,13.85
2019-02-27T10:41:13.317Z,13.88
2019-02-27T10:44:17.186Z,13.85
2019-02-27T10:47:20.145Z,14.04
2019-02-27T10:50:23.103Z,14.00
2019-02-27T10:53:27.367Z,14.40
2019-02-27T10:56:31.620Z,14.56
2019-02-27T10:59:34.868Z,14.97
2019-02-27T11:02:38.080Z,15.14
2019-02-27T11:05:41.062Z,15.30
2019-02-27T11:08:44.193Z,15.06
2019-02-27T11:11:48.740Z,16.00
2019-02-27T11:14:51.938Z,15.64
2019-02-27T11:17:54.996Z,15.85
2019-02-27T11:20:59.186Z,16.34
2019-02-27T11:24:02.468Z,16.84
2019-02-27T11:27:06.901Z,15.96
2019-02-27T11:30:14.611Z,15.95
2019-02-27T11:33:25.657Z,17.13
2019-02-27T11:36:22.691Z,17.14
2019-02-27T11:39:26.078Z,16.95
2019-02-27T11:42:32.014Z,16.09
2019-02-27T11:45:34.514Z,16.05
2019-02-27T11:48:37.774Z,16.85
2019-02-27T11:51:41.519Z,16.71
2019-02-27T11:54:44.770Z,16.75
2019-02-27T11:57:48.105Z,16.57
2019-02-27T12:00:51.337Z,17.61
2019-02-27T12:03:54.567Z,17.38
2019-02-27T12:06:58.127Z,17.79
2019-02-27T12:10:01.177Z,17.84
2019-02-27T12:13:04.857Z,18.52
2019-02-27T12:16:08.236Z,17.65
2019-02-27T12:19:11.461Z,18.32
2019-02-27T12:22:14.745Z,18.28
2019-02-27T12:25:18.154Z,17.73
2019-02-27T12:28:21.202Z,17.96
2019-02-27T12:31:24.503Z,18.94
2019-02-27T12:34:27.736Z,18.65
2019-02-27T12:37:34.052Z,17.78
2019-02-27T12:40:36.557Z,18.65
2019-02-27T12:43:39.800Z,18.58
2019-02-27T12:46:42.904Z,19.05
2019-02-27T12:49:46.126Z,20.12
2019-02-27T12:52:49.517Z,18.80
2019-02-27T12:55:52.744Z,18.56
2019-02-27T12:58:58.336Z,19.33
2019-02-27T13:02:08.068Z,20.08
2019-02-27T13:05:08.305Z,19.75
2019-02-27T13:08:11.419Z,19.18
2019-02-27T13:11:14.983Z,19.79
2019-02-27T13:14:18.506Z,18.72
2019-02-27T13:17:22.285Z,19.48
2019-02-27T13:20:25.831Z,19.48
2019-02-27T13:23:29.122Z,20.05
2019-02-27T13:26:34.728Z,19.60
2019-02-27T13:29:37.288Z,19.40
2019-02-27T13:32:40.833Z,19.82
2019-02-27T13:35:44.116Z,20.61
2019-02-27T13:38:49.526Z,20.47
2019-02-27T13:41:51.994Z,19.57
2019-02-27T13:44:55.314Z,19.78
2019-02-27T13:47:59.057Z,19.96
2019-02-27T13:51:02.787Z,20.06
2019-02-27T13:54:07.602Z,20.04
2019-02-27T13:57:10.834Z,19.90
2019-02-27T14:00:20.301Z,19.80
2019-02-27T14:03:22.451Z,19.63
2019-02-27T14:06:25.961Z,19.34
2019-02-27T14:09:28.931Z,19.81
2019-02-27T14:12:33.190Z,19.97
2019-02-27T14:15:37.594Z,19.76
2019-02-27T14:18:40.593Z,19.94
2019-02-27T14:21:43.780Z,19.58
2019-02-27T14:24:47.136Z,19.16
2019-02-27T14:27:50.445Z,19.09
2019-02-27T14:30:53.688Z,19.14
2019-02-27T14:33:57.034Z,18.85
2019-02-27T14:37:00.410Z,19.24
2019-02-27T14:40:04.515Z,19.20
2019-02-27T14:43:08.271Z,19.32
2019-02-27T14:46:12.305Z,19.49
2019-02-27T14:49:16.017Z,19.40
2019-02-27T14:52:19.325Z,19.34
2019-02-27T14:55:22.357Z,19.39
2019-02-27T14:58:25.581Z,19.26
2019-02-27T15:01:28.834Z,18.97
2019-02-27T15:04:32.440Z,18.75
2019-02-27T15:07:37.115Z,18.31
2019-02-27T15:10:41.329Z,17.81
2019-02-27T15:13:44.377Z,17.25
2019-02-27T15:16:49.286Z,16.79
2019-02-27T15:19:53.057Z,16.55
2019-02-27T15:22:56.465Z,16.33
2019-02-27T15:25:59.428Z,16.30
2019-02-27T15:29:05.780Z,16.00
2019-02-27T15:32:08.568Z,15.93
2019-02-27T15:35:11.914Z,15.80
2019-02-27T15:38:14.985Z,15.81
2019-02-27T15:41:18.282Z,15.79
2019-02-27T15:44:22.499Z,15.58
2019-02-27T15:47:27.062Z,15.50
2019-02-27T15:50:30.551Z,15.42
2019-02-27T15:53:33.627Z,15.20
2019-02-27T15:56:41.451Z,15.09
2019-02-27T15:59:42.120Z,14.92
2019-02-27T16:02:45.215Z,14.73
2019-02-27T16:05:48.409Z,14.57
2019-02-27T16:08:57.059Z,14.28
2019-02-27T16:11:56.537Z,14.28
2019-02-27T16:15:00.426Z,14.09
2019-02-27T16:18:04.724Z,13.82
2019-02-27T16:21:09.178Z,13.71
2019-02-27T16:24:12.998Z,13.58
2019-02-27T16:27:16.256Z,13.59
2019-02-27T16:30:22.061Z,13.49
2019-02-27T16:33:25.585Z,13.48
2019-02-27T16:36:36.020Z,13.47
2019-02-27T16:39:34.134Z,13.24
2019-02-27T16:42:39.071Z,13.23
2019-02-27T16:45:41.973Z,13.17
2019-02-27T16:48:45.282Z,13.00
2019-02-27T16:51:48.249Z,13.03
2019-02-27T16:54:51.569Z,12.95
2019-02-27T16:57:57.501Z,12.80
2019-02-27T17:00:59.840Z,12.74
2019-02-27T17:04:02.911Z,12.73
2019-02-27T17:07:06.145Z,12.52
2019-02-27T17:10:14.997Z,12.57
2019-02-27T17:13:19.589Z,12.51
2019-02-27T17:16:22.822Z,12.44
2019-02-27T17:19:26.110Z,12.44
2019-02-27T17:22:30.232Z,12.37
2019-02-27T17:25:34.224Z,12.32
2019-02-27T17:28:37.181Z,12.25
2019-02-27T17:31:49.056Z,12.31
2019-02-27T17:34:47.608Z,12.31
2019-02-27T17:37:50.878Z,12.15
2019-02-27T17:40:53.840Z,12.05
2019-02-27T17:44:03.880Z,12.04
2019-02-27T17:47:02.514Z,12.01
2019-02-27T17:50:06.254Z,11.93
2019-02-27T17:53:09.583Z,11.66
2019-02-27T17:56:15.399Z,11.55
2019-02-27T17:59:18.558Z,11.50
2019-02-27T18:02:21.930Z,11.65
2019-02-27T18:05:26.217Z,11.44
2019-02-27T18:08:29.799Z,11.67
2019-02-27T18:11:33.218Z,11.73
2019-02-27T18:14:36.460Z,11.50
2019-02-27T18:17:39.470Z,11.38
2019-02-27T18:20:43.038Z,11.29
2019-02-27T18:23:47.968Z,11.19
2019-02-27T18:26:51.519Z,11.55
2019-02-27T18:29:55.662Z,11.55
2019-02-27T18:33:00.987Z,11.23
2019-02-27T18:36:04.879Z,11.17
2019-02-27T18:39:08.972Z,11.21
2019-02-27T18:42:13.889Z,11.44
2019-02-27T18:45:16.853Z,11.20
2019-02-27T18:48:20.132Z,10.95
2019-02-27T18:51:23.656Z,10.88
2019-02-27T18:54:26.707Z,10.70
2019-02-27T18:57:29.707Z,10.59
2019-02-27T19:00:33.402Z,10.61
2019-02-27T19:03:37.617Z,10.68
2019-02-27T19:06:45.776Z,10.54
2019-02-27T19:09:47.052Z,10.63
2019-02-27T19:12:50.467Z,10.61
2019-02-27T19:15:53.732Z,10.85
2019-02-27T19:18:56.751Z,10.64
2019-02-27T19:21:59.973Z,10.80
2019-02-27T19:25:03.493Z,10.61
2019-02-27T19:28:07.392Z,10.58
2019-02-27T19:31:13.570Z,10.78
2019-02-27T19:34:16.283Z,10.95
2019-02-27T19:37:19.227Z,10.90
2019-02-27T19:40:23.601Z,11.01
2019-02-27T19:43:27.018Z,10.75
2019-02-27T19:46:30.249Z,10.79
2019-02-27T19:49:34.121Z,10.80
2019-02-27T19:52:38.607Z,10.74
2019-02-27T19:55:41.617Z,10.87
2019-02-27T19:58:44.817Z,10.96
2019-02-27T20:01:49.218Z,10.84
2019-02-27T20:04:52.473Z,10.67
2019-02-27T20:07:55.872Z,10.62
2019-02-27T20:11:02.362Z,10.58
2019-02-27T20:14:05.706Z,10.77
2019-02-27T20:17:09.304Z,11.00
2019-02-27T20:20:13.761Z,10.78
2019-02-27T20:23:17.084Z,10.45
2019-02-27T20:26:21.175Z,10.79
2019-02-27T20:29:24.196Z,10.60
2019-02-27T20:32:28.546Z,10.48
2019-02-27T20:35:32.631Z,10.39
2019-02-27T20:38:36.102Z,10.37
2019-02-27T20:41:41.093Z,10.65
2019-02-27T20:44:45.192Z,10.60
2019-02-27T20:47:48.462Z,10.65
2019-02-27T20:50:52.188Z,10.55
2019-02-27T20:53:55.504Z,10.35
2019-02-27T20:56:59.804Z,10.93
2019-02-27T21:00:03.589Z,10.40
2019-02-27T21:03:09.044Z,10.41
2019-02-27T21:06:13.016Z,10.62
2019-02-27T21:09:17.547Z,10.18
2019-02-27T21:12:20.770Z,10.46
2019-02-27T21:15:24.939Z,10.35
2019-02-27T21:18:29.160Z,10.14
2019-02-27T21:21:34.386Z,10.21
2019-02-27T21:24:40.564Z,10.21
2019-02-27T21:27:42.534Z,10.38
2019-02-27T21:30:46.224Z,10.31
2019-02-27T21:33:50.145Z,10.44
2019-02-27T21:36:53.754Z,10.64
2019-02-27T21:40:01.996Z,10.31
2019-02-27T21:43:02.082Z,10.29
2019-02-27T21:46:08.341Z,10.47
2019-02-27T21:49:11.775Z,10.26
2019-02-27T21:52:15.329Z,10.78
2019-02-27T21:55:18.292Z,10.74
2019-02-27T21:58:22.367Z,10.72
2019-02-27T22:01:25.339Z,10.48
2019-02-27T22:04:28.397Z,10.48
2019-02-27T22:07:33.233Z,10.63
2019-02-27T22:10:36.887Z,10.50
2019-02-27T22:13:42.242Z,10.34
2019-02-27T22:16:45.555Z,10.30
2019-02-27T22:19:50.525Z,10.29
2019-02-27T22:22:53.682Z,10.27
2019-02-27T22:25:56.947Z,10.51
2019-02-27T22:29:01.042Z,10.52
2019-02-27T22:32:03.982Z,10.61
2019-02-27T22:35:07.763Z,10.44
2019-02-27T22:38:10.979Z,10.74
2019-02-27T22:41:13.940Z,10.70
2019-02-27T22:44:17.779Z,10.62
2019-02-27T22:47:22.399Z,10.66
2019-02-27T22:50:25.859Z,10.69
2019-02-27T22:53:29.389Z,10.76
2019-02-27T22:56:32.675Z,10.51
2019-02-27T22:59:37.370Z,10.52
2019-02-27T23:02:40.757Z,10.35
2019-02-27T23:05:43.964Z,10.41
2019-02-27T23:08:47.039Z,10.31
2019-02-27T23:11:50.394Z,10.26
2019-02-27T23:14:53.789Z,10.19
2019-02-27T23:17:57.343Z,10.37
2019-02-27T23:21:00.309Z,10.13
2019-02-27T23:24:03.576Z,10.07
2019-02-27T23:27:06.509Z,10.16
2019-02-27T23:30:14.857Z,9.97
2019-02-27T23:33:14.949Z,10.14
2019-02-27T23:36:17.914Z,9.93
2019-02-27T23:39:21.445Z,9.85
2019-02-27T23:42:24.389Z,9.89
2019-02-27T23:45:27.354Z,9.76
2019-02-27T23:48:35.795Z,9.96
2019-02-27T23:51:35.843Z,10.00
2019-02-27T23:54:39.163Z,10.13
2019-02-27T23:57:43.113Z,10.19
